Terminal Aerodrome Forecast
Issued by NWS

Home | Current Version | Previous Version | Text Only | Print | Product List | Glossary On
Versions: 1 2 3 4 5 6 7 8 9 10 11 12 13 14 15 16
000
FTUS44 KHGX 240520
TAFLBX
TAF
KLBX 240520Z 2406/2506 10005KT P6SM SCT250
     FM241100 04003KT P6SM VCSH SCT025
     FM241700 08006KT P6SM VCSH SCT030 BKN120
     FM242000 10008KT P6SM VCTS BKN060CB
     FM250100 06005KT P6SM FEW060=

USA.gov is the U.S. government's official web portal to all federal, state and local government web resources and services.